Flight Track Log - Related Links

Times and Time Zones

All times are in EDT time to prevent confusion due to time zone crossing. See the DAL3676 flight status page for this flight to view local times or setup timezone preferences in your user account.


Time Position Orientation Groundspeed Altitude Reporting Facility
EDT Latitude Longitude Course Direction KTS MPH feet Rate Location/Type
Fri 06:59:56 PM 34.7217 -86.7642 North 200 230 4,200  Level Memphis Center
Fri 07:00:56 PM 34.7861 -86.7614 North 218 251 6,900 2,750 Climbing Memphis Center
Fri 07:01:56 PM 34.8592 -86.7558 North 235 270 9,700 2,150 Climbing Memphis Center
Fri 07:02:56 PM 34.9383 -86.7550 360° North 256 295 11,200 1,500 Climbing Memphis Center
Fri 07:03:56 PM 35.0278 -86.7486 North 294 338 12,700 1,650 Climbing Memphis Center
Fri 07:04:00 PM 35.1176 -86.7416 North  Level FlightAware Approximate
Fri 07:04:56 PM 35.1131 -86.7397 North 325 374 14,500  Level Memphis Center
Fri 07:05:00 PM 35.2145 -86.7319 North  Level FlightAware Approximate
Fri 07:05:56 PM 35.2047 -86.7333 North 333 383 16,400  Level Memphis Center
Fri 07:06:56 PM 35.3006 -86.7292 North 333 383 18,000 1,400 Climbing Memphis Center
Fri 07:08:56 PM 35.4922 -86.7208 North 340 391 20,600 1,067 Climbing Memphis Center
Fri 07:09:56 PM 35.5942 -86.7139 North 358 412 21,200 800 Climbing Memphis Center
Fri 07:10:56 PM 35.7106 -86.7061 North 371 427 22,200 1,000 Climbing Memphis Center
Fri 07:11:56 PM 35.8211 -86.6986 North 376 433 23,200 1,000 Climbing Memphis Center
Fri 07:12:56 PM 35.9250 -86.6939 North 384 442 24,200 992 Climbing Memphis Center
Fri 07:13:57 PM 36.0314 -86.6892 North 384 442 25,200 1,000 Climbing Memphis Center
Fri 07:14:56 PM 36.1356 -86.6844 North 384 442 26,200 1,059 Climbing Memphis Center
Fri 07:15:56 PM 36.2358 -86.7006 353° North 373 429 27,300 1,100 Climbing Memphis Center
Fri 07:16:56 PM 36.3406 -86.7139 354° North 373 429 28,400 850 Climbing Memphis Center
Fri 07:17:56 PM 36.4433 -86.7350 351° North 368 423 29,000 300 Climbing Memphis Center
Fri 07:18:56 PM 36.5442 -86.7564 350° North 373 429 29,000  Level Memphis Center
Fri 07:19:56 PM 36.6508 -86.7750 352° North 373 429 29,000  Level Memphis Center
Fri 07:20:57 PM 36.7619 -86.7958 351° North 385 443 29,000  Level Memphis Center
Fri 07:21:56 PM 36.8728 -86.8142 352° North 393 452 29,000  Level Memphis Center
Fri 07:24:24 PM 37.1328 -86.8594 352° North 405 466 29,000  Level Indianapolis Center
Fri 07:25:25 PM 37.2453 -86.8781 352° North 403 464 29,000  Level Indianapolis Center
Fri 07:26:27 PM 37.3789 -86.8778 360° North 412 474 29,000  Level Indianapolis Center
Fri 07:27:29 PM 37.4922 -86.8528 10° North 411 473 29,000  Level Indianapolis Center
Fri 07:28:31 PM 37.6103 -86.8283 North 406 467 29,000  Level Indianapolis Center
Fri 07:29:33 PM 37.7239 -86.8064 North 411 473 29,000  Level Indianapolis Center
Fri 07:30:35 PM 37.8364 -86.7819 10° North 410 472 29,000  Level Indianapolis Center
Fri 07:31:36 PM 37.9483 -86.7608 North 408 470 29,000  Level Indianapolis Center
Fri 07:32:38 PM 38.0603 -86.7361 10° North 410 472 29,000  Level Indianapolis Center
Fri 07:33:40 PM 38.1728 -86.7164 North 409 471 29,000  Level Indianapolis Center
Fri 07:34:42 PM 38.3067 -86.6869 10° North 410 472 29,000  Level Indianapolis Center
Fri 07:35:44 PM 38.4186 -86.6636 North 410 472 29,000  Level Indianapolis Center
Fri 07:36:46 PM 38.5314 -86.6408 North 411 473 29,000  Level Indianapolis Center
Fri 07:37:48 PM 38.6447 -86.6167 North 412 474 29,000  Level Indianapolis Center
Fri 07:38:50 PM 38.7578 -86.5917 10° North 412 474 29,000  Level Indianapolis Center
Fri 07:39:51 PM 38.8767 -86.5689 North 412 474 29,000  Level Indianapolis Center
Fri 07:40:53 PM 38.9914 -86.5436 10° North 414 476 29,000  Level Indianapolis Center
Fri 07:41:55 PM 39.1058 -86.5194 North 414 476 29,000  Level Indianapolis Center
Fri 07:42:57 PM 39.2356 -86.4661 18° North 427 491 29,000  Level Indianapolis Center
Fri 07:43:59 PM 39.3411 -86.3919 29° Northeast 428 493 29,000  Level Indianapolis Center
Fri 07:45:01 PM 39.4450 -86.3156 30° Northeast 428 493 29,000  Level Indianapolis Center
Fri 07:46:03 PM 39.5497 -86.2403 29° Northeast 429 494 29,000  Level Indianapolis Center
Fri 07:47:05 PM 39.6536 -86.1658 29° Northeast 428 493 29,000  Level Indianapolis Center
Fri 07:48:07 PM 39.7739 -86.0797 29° Northeast 429 494 29,000  Level Indianapolis Center
Fri 07:49:09 PM 39.8781 -86.0019 30° Northeast 430 495 29,000  Level Indianapolis Center
Fri 07:50:11 PM 39.9839 -85.9247 29° Northeast 433 498 29,000  Level Indianapolis Center
Fri 07:51:13 PM 40.0897 -85.8483 29° Northeast 433 498 29,000  Level Indianapolis Center
Fri 07:51:41 PM 40.1433 -85.8089 29° Northeast 431 496 29,000  Level Chicago Center
Fri 07:52:43 PM 40.2478 -85.7314 30° Northeast 430 495 29,000 -97 Level Chicago Center
Fri 07:53:45 PM 40.3544 -85.6525 29° Northeast 435 501 28,800 -919 Descending Chicago Center
Fri 07:54:47 PM 40.4611 -85.5744 29° Northeast 436 502 27,100 -871 Descending Chicago Center
Fri 07:55:49 PM 40.5639 -85.4983 29° Northeast 423 487 27,000 -484 Descending Chicago Center
Fri 07:56:51 PM 40.6775 -85.4125 30° Northeast 423 487 26,100 -1,210 Descending Chicago Center
Fri 07:57:53 PM 40.7839 -85.3311 30° Northeast 442 509 24,500 -1,548 Descending Chicago Center
Fri 07:58:55 PM 40.8922 -85.2508 29° Northeast 447 514 22,900 -1,500 Descending Chicago Center
Fri 07:59:57 PM 40.9964 -85.1667 31° Northeast 443 510 21,400 -919 Descending Chicago Center
Fri 08:00:59 PM 41.1089 -85.0467 39° Northeast 436 502 21,000 -194 Descending Chicago Center
Fri 08:02:01 PM 41.2006 -84.9494 39° Northeast 430 495 21,000  Level Chicago Center
Fri 08:03:03 PM 41.2914 -84.8519 39° Northeast 424 488 21,000  Level Chicago Center
Fri 08:04:05 PM 41.3814 -84.7539 39° Northeast 421 484 21,000 -774 Level Chicago Center
Fri 08:05:07 PM 41.4614 -84.6494 44° Northeast 408 470 19,400 -2,043 Descending Chicago Center
Fri 08:05:39 PM 41.5042 -84.5872 47° Northeast 400 460 17,800 -3,065 Descending Cleveland Center
Fri 08:06:39 PM 41.5789 -84.4808 47° Northeast 394 453 14,700 -2,850 Descending Cleveland Center
Fri 08:07:39 PM 41.6553 -84.3742 46° Northeast 388 447 12,100 -1,761 Descending Cleveland Center
Fri 08:08:11 PM 41.6969 -84.3156 46° Northeast 363 418 12,000 -100 Descending Cleveland Center
Fri 08:08:39 PM 41.7233 -84.2725 51° Northeast 382 440 12,000  Level Cleveland Center
Fri 08:08:54 PM 41.7453 -84.2347 52° Northeast 365 420 12,000  Level Cleveland Center
Fri 08:09:39 PM 41.7792 -84.1531 61° Northeast 368 423 12,000  Level Cleveland Center
Fri 08:10:02 PM 41.7950 -84.1150 61° Northeast 296 341 12,000  Level Cleveland Center
Fri 08:10:39 PM 41.8136 -84.0547 67° East 325 374 12,000  Level Cleveland Center
Fri 08:11:03 PM 41.8314 -84.0167 58° Northeast 302 348 12,000 -500 Level Cleveland Center
Fri 08:11:39 PM 41.8600 -83.9653 53° Northeast 299 344 11,500 -1,279 Descending Cleveland Center
Fri 08:12:04 PM 41.8839 -83.9303 47° Northeast 288 331 10,700 -1,400 Descending Cleveland Center
Fri 08:12:39 PM 41.8961 -83.8694 75° East 286 329 10,100 -1,164 Descending Cleveland Center
Fri 08:13:11 PM 41.9125 -83.8117 69° East 297 342 9,400 -1,100 Descending Cleveland Center
Fri 08:13:39 PM 41.9219 -83.7647 75° East 286 329 9,000 -871 Descending Cleveland Center
Fri 08:14:13 PM 41.9361 -83.7125 70° East 244 281 8,500 -900 Descending Cleveland Center
Fri 08:14:39 PM 41.9453 -83.6794 70° East 269 310 8,100 -1,180 Descending Cleveland Center
Fri 08:15:14 PM 41.9653 -83.6356 58° Northeast 215 247 7,300 -1,300 Descending Cleveland Center
Fri 08:15:39 PM 41.9742 -83.6108 64° Northeast 236 272 6,800 -1,377 Descending Cleveland Center
Fri 08:16:15 PM 41.9961 -83.5728 52° Northeast 204 235 5,900 -1,200 Descending Cleveland Center
Fri 08:16:39 PM 42.0008 -83.5506 74° East 214 246 5,600 -1,180 Descending Cleveland Center
Fri 08:17:16 PM 42.0289 -83.5100 47° Northeast 182 209 4,700 -1,200 Descending Cleveland Center
Fri 08:17:39 PM 42.0417 -83.4967 38° Northeast 192 221 4,400 -968 Descending Cleveland Center
Fri 08:18:18 PM 42.0756 -83.4814 19° North 186 214 3,700 -1,080 Descending Cleveland Center
Fri 08:19:19 PM 42.1203 -83.4442 32° Northeast 185 213 2,600 -984 Descending Cleveland Center
Fri 08:20:20 PM 42.1606 -83.4153 28° Northeast 128 147 1,700 -828 Descending Cleveland Center
Fri 08:21:15 PM 42.1922 -83.3942 26° Northeast 133 153 1,000 -764 Descending Cleveland Center

Login

Don't have an account? Register now (free) for customized features, flight alerts, and more!